sensor_id;sensor_type;location;lat;lon;timestamp;temperature;humidity
26623;DHT22;14254;50.968;5.366;2022-09-25T00:00:27;12.90;99.90
26623;DHT22;14254;50.968;5.366;2022-09-25T00:02:53;12.80;99.90
26623;DHT22;14254;50.968;5.366;2022-09-25T00:05:19;12.80;99.90
26623;DHT22;14254;50.968;5.366;2022-09-25T00:07:45;12.90;99.90
26623;DHT22;14254;50.968;5.366;2022-09-25T00:10:11;13.00;99.90
26623;DHT22;14254;50.968;5.366;2022-09-25T00:12:36;13.10;99.90
26623;DHT22;14254;50.968;5.366;2022-09-25T00:15:03;13.20;99.90
26623;DHT22;14254;50.968;5.366;2022-09-25T00:17:29;13.10;99.90
26623;DHT22;14254;50.968;5.366;2022-09-25T00:19:55;13.10;99.90
26623;DHT22;14254;50.968;5.366;2022-09-25T00:22:22;13.00;99.90
26623;DHT22;14254;50.968;5.366;2022-09-25T00:24:49;12.90;99.90
26623;DHT22;14254;50.968;5.366;2022-09-25T00:27:16;13.00;99.90
26623;DHT22;14254;50.968;5.366;2022-09-25T00:29:42;12.90;99.90
26623;DHT22;14254;50.968;5.366;2022-09-25T00:32:10;12.90;99.90
26623;DHT22;14254;50.968;5.366;2022-09-25T00:34:38;12.90;99.90
26623;DHT22;14254;50.968;5.366;2022-09-25T00:37:05;12.90;99.90
26623;DHT22;14254;50.968;5.366;2022-09-25T00:39:32;12.90;99.90
26623;DHT22;14254;50.968;5.366;2022-09-25T00:41:58;12.90;99.90
26623;DHT22;14254;50.968;5.366;2022-09-25T00:47:52;12.90;99.90
26623;DHT22;14254;50.968;5.366;2022-09-25T00:50:52;12.80;99.90
26623;DHT22;14254;50.968;5.366;2022-09-25T00:53:28;12.80;99.90
26623;DHT22;14254;50.968;5.366;2022-09-25T00:55:56;12.80;99.90
26623;DHT22;14254;50.968;5.366;2022-09-25T00:58:23;12.90;99.90
26623;DHT22;14254;50.968;5.366;2022-09-25T01:00:51;12.90;99.90
26623;DHT22;14254;50.968;5.366;2022-09-25T01:03:19;12.90;99.90
26623;DHT22;14254;50.968;5.366;2022-09-25T01:05:46;12.70;99.90
26623;DHT22;14254;50.968;5.366;2022-09-25T01:08:17;12.80;99.90
26623;DHT22;14254;50.968;5.366;2022-09-25T01:10:44;12.80;99.90
26623;DHT22;14254;50.968;5.366;2022-09-25T01:13:10;12.70;99.90
26623;DHT22;14254;50.968;5.366;2022-09-25T01:21:18;12.70;99.90
26623;DHT22;14254;50.968;5.366;2022-09-25T01:24:07;12.80;99.90
26623;DHT22;14254;50.968;5.366;2022-09-25T01:38:12;12.70;99.90
26623;DHT22;14254;50.968;5.366;2022-09-25T01:41:10;12.70;99.90
26623;DHT22;14254;50.968;5.366;2022-09-25T01:43:47;12.80;99.90
26623;DHT22;14254;50.968;5.366;2022-09-25T01:46:19;12.70;99.90
26623;DHT22;14254;50.968;5.366;2022-09-25T01:48:52;12.80;99.90
26623;DHT22;14254;50.968;5.366;2022-09-25T01:51:28;12.70;99.90
26623;DHT22;14254;50.968;5.366;2022-09-25T01:54:00;12.70;99.90
26623;DHT22;14254;50.968;5.366;2022-09-25T01:56:35;12.80;99.90
26623;DHT22;14254;50.968;5.366;2022-09-25T02:01:39;12.80;99.90
26623;DHT22;14254;50.968;5.366;2022-09-25T02:04:36;12.90;99.90
26623;DHT22;14254;50.968;5.366;2022-09-25T02:07:07;12.80;99.90
26623;DHT22;14254;50.968;5.366;2022-09-25T02:09:51;12.70;99.90
26623;DHT22;14254;50.968;5.366;2022-09-25T02:12:29;12.70;99.90
26623;DHT22;14254;50.968;5.366;2022-09-25T02:15:24;12.70;99.90
26623;DHT22;14254;50.968;5.366;2022-09-25T02:17:53;12.70;99.90
26623;DHT22;14254;50.968;5.366;2022-09-25T02:20:38;12.70;99.90
26623;DHT22;14254;50.968;5.366;2022-09-25T02:25:44;12.70;99.90
26623;DHT22;14254;50.968;5.366;2022-09-25T02:28:10;12.60;99.90
26623;DHT22;14254;50.968;5.366;2022-09-25T02:30:36;12.60;99.90
26623;DHT22;14254;50.968;5.366;2022-09-25T02:33:01;12.60;99.90
26623;DHT22;14254;50.968;5.366;2022-09-25T02:35:27;12.60;99.90
26623;DHT22;14254;50.968;5.366;2022-09-25T02:37:54;12.50;99.90
26623;DHT22;14254;50.968;5.366;2022-09-25T02:41:11;12.50;99.90
26623;DHT22;14254;50.968;5.366;2022-09-25T02:43:14;12.50;99.90
26623;DHT22;14254;50.968;5.366;2022-09-25T02:45:54;12.50;99.90
26623;DHT22;14254;50.968;5.366;2022-09-25T02:53:55;12.10;99.90
26623;DHT22;14254;50.968;5.366;2022-09-25T02:57:05;12.10;99.90
26623;DHT22;14254;50.968;5.366;2022-09-25T02:59:39;12.00;99.90
26623;DHT22;14254;50.968;5.366;2022-09-25T03:02:07;11.90;99.90
26623;DHT22;14254;50.968;5.366;2022-09-25T03:04:36;11.80;99.90
26623;DHT22;14254;50.968;5.366;2022-09-25T03:07:04;11.80;99.90
26623;DHT22;14254;50.968;5.366;2022-09-25T03:09:34;11.90;99.90
26623;DHT22;14254;50.968;5.366;2022-09-25T03:12:01;11.90;99.90
26623;DHT22;14254;50.968;5.366;2022-09-25T03:14:28;11.80;99.90
26623;DHT22;14254;50.968;5.366;2022-09-25T03:16:55;11.80;99.90
26623;DHT22;14254;50.968;5.366;2022-09-25T03:19:24;11.80;99.90
26623;DHT22;14254;50.968;5.366;2022-09-25T03:21:52;11.80;99.90
26623;DHT22;14254;50.968;5.366;2022-09-25T03:24:19;11.70;99.90
26623;DHT22;14254;50.968;5.366;2022-09-25T03:26:45;11.70;99.90
26623;DHT22;14254;50.968;5.366;2022-09-25T03:29:12;11.70;99.90
26623;DHT22;14254;50.968;5.366;2022-09-25T03:31:39;11.70;99.90
26623;DHT22;14254;50.968;5.366;2022-09-25T03:34:06;11.70;99.90
26623;DHT22;14254;50.968;5.366;2022-09-25T03:36:32;11.80;99.90
26623;DHT22;14254;50.968;5.366;2022-09-25T03:38:59;11.80;99.90
26623;DHT22;14254;50.968;5.366;2022-09-25T03:41:28;11.70;99.90
26623;DHT22;14254;50.968;5.366;2022-09-25T03:43:53;11.70;99.90
26623;DHT22;14254;50.968;5.366;2022-09-25T03:46:23;11.60;99.90
26623;DHT22;14254;50.968;5.366;2022-09-25T03:48:49;11.60;99.90
26623;DHT22;14254;50.968;5.366;2022-09-25T03:51:16;11.60;99.90
26623;DHT22;14254;50.968;5.366;2022-09-25T03:53:43;11.60;99.90
26623;DHT22;14254;50.968;5.366;2022-09-25T03:56:17;11.60;99.90
26623;DHT22;14254;50.968;5.366;2022-09-25T03:58:45;11.60;99.90
26623;DHT22;14254;50.968;5.366;2022-09-25T04:01:12;11.50;99.90
26623;DHT22;14254;50.968;5.366;2022-09-25T04:03:38;11.50;99.90
26623;DHT22;14254;50.968;5.366;2022-09-25T04:06:05;11.70;99.90
26623;DHT22;14254;50.968;5.366;2022-09-25T04:08:32;11.70;99.90
26623;DHT22;14254;50.968;5.366;2022-09-25T04:10:58;11.90;99.90
26623;DHT22;14254;50.968;5.366;2022-09-25T04:13:26;11.90;99.90
26623;DHT22;14254;50.968;5.366;2022-09-25T04:15:55;11.90;99.90
26623;DHT22;14254;50.968;5.366;2022-09-25T04:18:21;11.90;99.90
26623;DHT22;14254;50.968;5.366;2022-09-25T04:20:46;11.90;99.90
26623;DHT22;14254;50.968;5.366;2022-09-25T04:23:12;11.90;99.90
26623;DHT22;14254;50.968;5.366;2022-09-25T04:25:38;12.00;99.90
26623;DHT22;14254;50.968;5.366;2022-09-25T04:28:04;11.70;99.90
26623;DHT22;14254;50.968;5.366;2022-09-25T04:30:32;11.50;99.90
26623;DHT22;14254;50.968;5.366;2022-09-25T04:32:58;11.40;99.90
26623;DHT22;14254;50.968;5.366;2022-09-25T04:35:42;11.30;99.90
26623;DHT22;14254;50.968;5.366;2022-09-25T04:38:08;11.20;99.90
26623;DHT22;14254;50.968;5.366;2022-09-25T04:40:35;11.10;99.90
26623;DHT22;14254;50.968;5.366;2022-09-25T04:43:02;11.10;99.90
26623;DHT22;14254;50.968;5.366;2022-09-25T04:45:29;11.10;99.90
26623;DHT22;14254;50.968;5.366;2022-09-25T04:47:58;11.20;99.90
26623;DHT22;14254;50.968;5.366;2022-09-25T04:50:25;11.20;99.90
26623;DHT22;14254;50.968;5.366;2022-09-25T04:52:51;11.20;99.90
26623;DHT22;14254;50.968;5.366;2022-09-25T04:55:17;11.10;99.90
26623;DHT22;14254;50.968;5.366;2022-09-25T04:57:44;11.10;99.90
26623;DHT22;14254;50.968;5.366;2022-09-25T05:00:11;11.00;99.90
26623;DHT22;14254;50.968;5.366;2022-09-25T05:02:40;11.00;99.90
26623;DHT22;14254;50.968;5.366;2022-09-25T05:05:06;11.00;99.90
26623;DHT22;14254;50.968;5.366;2022-09-25T05:07:32;10.90;99.90
26623;DHT22;14254;50.968;5.366;2022-09-25T05:09:57;10.80;99.90
26623;DHT22;14254;50.968;5.366;2022-09-25T05:12:23;10.80;99.90
26623;DHT22;14254;50.968;5.366;2022-09-25T05:14:49;10.90;99.90
26623;DHT22;14254;50.968;5.366;2022-09-25T05:17:14;10.90;99.90
26623;DHT22;14254;50.968;5.366;2022-09-25T05:19:40;10.90;99.90
26623;DHT22;14254;50.968;5.366;2022-09-25T05:22:05;10.90;99.90
26623;DHT22;14254;50.968;5.366;2022-09-25T05:24:31;11.10;99.90
26623;DHT22;14254;50.968;5.366;2022-09-25T05:26:57;10.90;99.90
26623;DHT22;14254;50.968;5.366;2022-09-25T05:29:23;10.90;99.90
26623;DHT22;14254;50.968;5.366;2022-09-25T05:31:48;11.00;99.90
26623;DHT22;14254;50.968;5.366;2022-09-25T05:34:14;11.00;99.90
26623;DHT22;14254;50.968;5.366;2022-09-25T05:36:40;11.00;99.90
26623;DHT22;14254;50.968;5.366;2022-09-25T05:39:08;11.10;99.90
26623;DHT22;14254;50.968;5.366;2022-09-25T05:41:35;11.20;99.90
26623;DHT22;14254;50.968;5.366;2022-09-25T05:44:01;11.20;99.90
26623;DHT22;14254;50.968;5.366;2022-09-25T05:46:35;11.30;99.90
26623;DHT22;14254;50.968;5.366;2022-09-25T05:49:01;11.40;99.90
26623;DHT22;14254;50.968;5.366;2022-09-25T05:51:27;11.20;99.90
26623;DHT22;14254;50.968;5.366;2022-09-25T05:53:53;11.20;99.90
26623;DHT22;14254;50.968;5.366;2022-09-25T05:56:19;11.30;99.90
26623;DHT22;14254;50.968;5.366;2022-09-25T05:58:45;11.30;99.90
26623;DHT22;14254;50.968;5.366;2022-09-25T06:01:12;11.30;99.90
26623;DHT22;14254;50.968;5.366;2022-09-25T06:03:38;11.40;99.90
26623;DHT22;14254;50.968;5.366;2022-09-25T06:06:04;11.50;99.90
26623;DHT22;14254;50.968;5.366;2022-09-25T06:08:30;11.60;99.90
26623;DHT22;14254;50.968;5.366;2022-09-25T06:10:57;11.60;99.90
26623;DHT22;14254;50.968;5.366;2022-09-25T06:13:23;11.50;99.90
26623;DHT22;14254;50.968;5.366;2022-09-25T06:15:50;11.40;99.90
26623;DHT22;14254;50.968;5.366;2022-09-25T06:18:18;11.40;99.90
26623;DHT22;14254;50.968;5.366;2022-09-25T06:20:45;11.50;99.90
26623;DHT22;14254;50.968;5.366;2022-09-25T06:23:11;11.40;99.90
26623;DHT22;14254;50.968;5.366;2022-09-25T06:25:37;11.50;99.90
26623;DHT22;14254;50.968;5.366;2022-09-25T06:28:03;11.50;99.90
26623;DHT22;14254;50.968;5.366;2022-09-25T06:30:31;11.50;99.90
26623;DHT22;14254;50.968;5.366;2022-09-25T06:33:11;11.50;99.90
26623;DHT22;14254;50.968;5.366;2022-09-25T06:35:58;11.60;99.90
26623;DHT22;14254;50.968;5.366;2022-09-25T06:38:24;11.60;99.90
26623;DHT22;14254;50.968;5.366;2022-09-25T06:40:50;11.60;99.90
26623;DHT22;14254;50.968;5.366;2022-09-25T06:43:16;11.70;99.90
26623;DHT22;14254;50.968;5.366;2022-09-25T06:45:42;11.90;99.90
26623;DHT22;14254;50.968;5.366;2022-09-25T06:48:10;11.80;99.90
26623;DHT22;14254;50.968;5.366;2022-09-25T06:53:08;12.00;99.90
26623;DHT22;14254;50.968;5.366;2022-09-25T06:55:34;12.00;99.90
26623;DHT22;14254;50.968;5.366;2022-09-25T06:58:01;12.10;99.90
26623;DHT22;14254;50.968;5.366;2022-09-25T07:00:27;12.20;99.90
26623;DHT22;14254;50.968;5.366;2022-09-25T07:02:52;12.30;99.90
26623;DHT22;14254;50.968;5.366;2022-09-25T07:05:37;12.40;99.90
26623;DHT22;14254;50.968;5.366;2022-09-25T07:08:02;12.30;99.90
26623;DHT22;14254;50.968;5.366;2022-09-25T07:10:28;12.20;99.90
26623;DHT22;14254;50.968;5.366;2022-09-25T07:12:54;12.00;99.90
26623;DHT22;14254;50.968;5.366;2022-09-25T07:15:20;11.70;99.90
26623;DHT22;14254;50.968;5.366;2022-09-25T07:17:47;11.80;99.90
26623;DHT22;14254;50.968;5.366;2022-09-25T07:20:12;11.80;99.90
26623;DHT22;14254;50.968;5.366;2022-09-25T07:22:40;11.70;99.90
26623;DHT22;14254;50.968;5.366;2022-09-25T07:25:07;11.70;99.90
26623;DHT22;14254;50.968;5.366;2022-09-25T07:27:33;11.60;99.90
26623;DHT22;14254;50.968;5.366;2022-09-25T07:29:59;11.70;99.90
26623;DHT22;14254;50.968;5.366;2022-09-25T07:32:25;11.70;99.90
26623;DHT22;14254;50.968;5.366;2022-09-25T07:34:50;11.70;99.90
26623;DHT22;14254;50.968;5.366;2022-09-25T07:37:16;11.80;99.90
26623;DHT22;14254;50.968;5.366;2022-09-25T07:39:42;11.80;99.90
26623;DHT22;14254;50.968;5.366;2022-09-25T07:42:09;11.80;99.90
26623;DHT22;14254;50.968;5.366;2022-09-25T07:44:35;11.80;99.90
26623;DHT22;14254;50.968;5.366;2022-09-25T07:47:00;11.80;99.90
26623;DHT22;14254;50.968;5.366;2022-09-25T07:49:29;11.80;99.90
26623;DHT22;14254;50.968;5.366;2022-09-25T07:51:54;11.90;99.90
26623;DHT22;14254;50.968;5.366;2022-09-25T07:54:20;12.10;99.90
26623;DHT22;14254;50.968;5.366;2022-09-25T07:56:46;12.20;99.90
26623;DHT22;14254;50.968;5.366;2022-09-25T07:59:11;12.30;99.90
26623;DHT22;14254;50.968;5.366;2022-09-25T08:01:37;12.50;99.90
26623;DHT22;14254;50.968;5.366;2022-09-25T08:04:03;12.60;99.90
26623;DHT22;14254;50.968;5.366;2022-09-25T08:06:28;12.60;99.90
26623;DHT22;14254;50.968;5.366;2022-09-25T08:08:54;12.70;99.90
26623;DHT22;14254;50.968;5.366;2022-09-25T08:11:20;12.90;99.90
26623;DHT22;14254;50.968;5.366;2022-09-25T08:13:47;12.90;99.90
26623;DHT22;14254;50.968;5.366;2022-09-25T08:16:18;13.00;99.90
26623;DHT22;14254;50.968;5.366;2022-09-25T08:18:46;13.10;99.90
26623;DHT22;14254;50.968;5.366;2022-09-25T08:21:13;13.30;99.90
26623;DHT22;14254;50.968;5.366;2022-09-25T08:23:47;13.30;99.90
26623;DHT22;14254;50.968;5.366;2022-09-25T08:26:17;13.40;99.90
26623;DHT22;14254;50.968;5.366;2022-09-25T08:28:43;13.40;99.90
26623;DHT22;14254;50.968;5.366;2022-09-25T08:31:09;13.50;99.90
26623;DHT22;14254;50.968;5.366;2022-09-25T08:33:35;13.50;99.90
26623;DHT22;14254;50.968;5.366;2022-09-25T08:36:03;13.60;99.90
26623;DHT22;14254;50.968;5.366;2022-09-25T08:38:30;13.60;99.90
26623;DHT22;14254;50.968;5.366;2022-09-25T08:43:30;13.90;99.90
26623;DHT22;14254;50.968;5.366;2022-09-25T08:45:58;14.10;99.90
26623;DHT22;14254;50.968;5.366;2022-09-25T08:48:55;14.10;99.90
26623;DHT22;14254;50.968;5.366;2022-09-25T08:51:42;14.10;99.90
26623;DHT22;14254;50.968;5.366;2022-09-25T08:54:17;14.30;99.90
26623;DHT22;14254;50.968;5.366;2022-09-25T08:56:43;14.50;99.90
26623;DHT22;14254;50.968;5.366;2022-09-25T08:59:27;14.50;99.90
26623;DHT22;14254;50.968;5.366;2022-09-25T09:02:00;14.50;99.90
26623;DHT22;14254;50.968;5.366;2022-09-25T09:05:15;14.70;99.90
26623;DHT22;14254;50.968;5.366;2022-09-25T09:07:39;14.90;99.90
26623;DHT22;14254;50.968;5.366;2022-09-25T09:15:58;16.10;99.90
26623;DHT22;14254;50.968;5.366;2022-09-25T09:18:27;15.80;99.90
26623;DHT22;14254;50.968;5.366;2022-09-25T09:20:58;15.70;99.90
26623;DHT22;14254;50.968;5.366;2022-09-25T09:26:23;15.90;99.90
26623;DHT22;14254;50.968;5.366;2022-09-25T09:31:49;15.80;99.90
26623;DHT22;14254;50.968;5.366;2022-09-25T09:49:32;16.10;99.90
26623;DHT22;14254;50.968;5.366;2022-09-25T09:52:11;16.60;99.90
26623;DHT22;14254;50.968;5.366;2022-09-25T09:54:49;16.90;99.90
26623;DHT22;14254;50.968;5.366;2022-09-25T09:57:31;16.90;99.90
26623;DHT22;14254;50.968;5.366;2022-09-25T10:00:05;17.10;99.90
26623;DHT22;14254;50.968;5.366;2022-09-25T10:07:42;17.00;99.90
26623;DHT22;14254;50.968;5.366;2022-09-25T10:10:12;17.00;99.90
26623;DHT22;14254;50.968;5.366;2022-09-25T10:12:45;16.80;99.90
26623;DHT22;14254;50.968;5.366;2022-09-25T10:15:18;16.60;99.90
26623;DHT22;14254;50.968;5.366;2022-09-25T10:17:45;16.40;99.90
26623;DHT22;14254;50.968;5.366;2022-09-25T10:20:18;16.40;99.90
26623;DHT22;14254;50.968;5.366;2022-09-25T10:22:45;16.50;99.90
26623;DHT22;14254;50.968;5.366;2022-09-25T10:25:11;16.80;99.90
26623;DHT22;14254;50.968;5.366;2022-09-25T10:27:42;17.00;99.90
26623;DHT22;14254;50.968;5.366;2022-09-25T10:30:20;17.10;99.90
26623;DHT22;14254;50.968;5.366;2022-09-25T10:33:13;17.30;99.90
26623;DHT22;14254;50.968;5.366;2022-09-25T10:35:43;16.90;99.90
26623;DHT22;14254;50.968;5.366;2022-09-25T10:41:10;16.50;99.90
26623;DHT22;14254;50.968;5.366;2022-09-25T10:43:51;16.20;99.90
26623;DHT22;14254;50.968;5.366;2022-09-25T10:46:26;16.20;99.90
26623;DHT22;14254;50.968;5.366;2022-09-25T10:49:21;16.30;99.90
26623;DHT22;14254;50.968;5.366;2022-09-25T10:52:19;16.30;99.90
26623;DHT22;14254;50.968;5.366;2022-09-25T10:54:46;16.50;99.90
26623;DHT22;14254;50.968;5.366;2022-09-25T10:57:30;16.70;99.90
26623;DHT22;14254;50.968;5.366;2022-09-25T10:59:59;16.90;99.90
26623;DHT22;14254;50.968;5.366;2022-09-25T11:02:37;17.20;99.90
26623;DHT22;14254;50.968;5.366;2022-09-25T11:05:18;17.40;99.90
26623;DHT22;14254;50.968;5.366;2022-09-25T11:07:48;17.50;99.90
26623;DHT22;14254;50.968;5.366;2022-09-25T11:10:48;17.70;99.90
26623;DHT22;14254;50.968;5.366;2022-09-25T11:13:47;17.70;99.90
26623;DHT22;14254;50.968;5.366;2022-09-25T11:16:14;17.30;99.90
26623;DHT22;14254;50.968;5.366;2022-09-25T11:18:43;17.30;99.90
26623;DHT22;14254;50.968;5.366;2022-09-25T11:21:31;17.60;99.90
26623;DHT22;14254;50.968;5.366;2022-09-25T11:24:11;18.20;99.90
26623;DHT22;14254;50.968;5.366;2022-09-25T11:26:43;19.90;99.90
26623;DHT22;14254;50.968;5.366;2022-09-25T11:29:21;21.60;99.90
26623;DHT22;14254;50.968;5.366;2022-09-25T11:32:06;22.10;98.40
26623;DHT22;14254;50.968;5.366;2022-09-25T11:37:42;24.10;96.50
26623;DHT22;14254;50.968;5.366;2022-09-25T11:43:19;20.10;99.90
26623;DHT22;14254;50.968;5.366;2022-09-25T11:45:52;18.90;99.90
26623;DHT22;14254;50.968;5.366;2022-09-25T11:48:22;18.50;99.90
26623;DHT22;14254;50.968;5.366;2022-09-25T11:56:38;23.40;95.60
26623;DHT22;14254;50.968;5.366;2022-09-25T11:59:32;25.40;91.60
26623;DHT22;14254;50.968;5.366;2022-09-25T12:02:14;26.30;86.00
26623;DHT22;14254;50.968;5.366;2022-09-25T12:10:25;22.40;96.40
26623;DHT22;14254;50.968;5.366;2022-09-25T12:13:35;22.30;97.20
26623;DHT22;14254;50.968;5.366;2022-09-25T12:16:18;24.90;91.90
26623;DHT22;14254;50.968;5.366;2022-09-25T12:19:14;25.70;88.70
26623;DHT22;14254;50.968;5.366;2022-09-25T12:27:08;22.40;93.50
26623;DHT22;14254;50.968;5.366;2022-09-25T12:30:00;22.30;93.60
26623;DHT22;14254;50.968;5.366;2022-09-25T12:33:05;22.10;94.30
26623;DHT22;14254;50.968;5.366;2022-09-25T12:35:39;21.30;95.80
26623;DHT22;14254;50.968;5.366;2022-09-25T12:38:32;20.80;96.90
26623;DHT22;14254;50.968;5.366;2022-09-25T12:43:54;23.30;92.10
26623;DHT22;14254;50.968;5.366;2022-09-25T12:49:03;22.40;93.20
26623;DHT22;14254;50.968;5.366;2022-09-25T12:51:41;23.80;91.80
26623;DHT22;14254;50.968;5.366;2022-09-25T12:57:40;29.80;75.00
26623;DHT22;14254;50.968;5.366;2022-09-25T13:00:23;30.30;69.50
26623;DHT22;14254;50.968;5.366;2022-09-25T13:05:34;30.10;69.40
26623;DHT22;14254;50.968;5.366;2022-09-25T13:08:30;31.40;64.90
26623;DHT22;14254;50.968;5.366;2022-09-25T13:11:18;32.00;62.00
26623;DHT22;14254;50.968;5.366;2022-09-25T13:13:49;33.20;60.90
26623;DHT22;14254;50.968;5.366;2022-09-25T13:16:18;33.30;57.00
26623;DHT22;14254;50.968;5.366;2022-09-25T13:21:40;25.00;72.40
26623;DHT22;14254;50.968;5.366;2022-09-25T13:24:14;22.20;82.60
26623;DHT22;14254;50.968;5.366;2022-09-25T13:26:49;21.70;84.10
26623;DHT22;14254;50.968;5.366;2022-09-25T13:29:29;21.20;86.60
26623;DHT22;14254;50.968;5.366;2022-09-25T13:32:17;20.20;92.50
26623;DHT22;14254;50.968;5.366;2022-09-25T13:34:43;20.00;94.30
26623;DHT22;14254;50.968;5.366;2022-09-25T13:37:11;20.00;95.60
26623;DHT22;14254;50.968;5.366;2022-09-25T13:39:46;20.40;94.70
26623;DHT22;14254;50.968;5.366;2022-09-25T13:42:38;20.80;94.30
26623;DHT22;14254;50.968;5.366;2022-09-25T13:45:32;21.20;93.10
26623;DHT22;14254;50.968;5.366;2022-09-25T13:48:10;21.10;93.40
26623;DHT22;14254;50.968;5.366;2022-09-25T13:50:46;20.70;94.40
26623;DHT22;14254;50.968;5.366;2022-09-25T13:53:24;20.80;94.10
26623;DHT22;14254;50.968;5.366;2022-09-25T13:58:23;21.10;93.50
26623;DHT22;14254;50.968;5.366;2022-09-25T14:00:53;21.70;92.00
26623;DHT22;14254;50.968;5.366;2022-09-25T14:06:25;23.30;90.00
26623;DHT22;14254;50.968;5.366;2022-09-25T14:08:55;24.20;85.90
26623;DHT22;14254;50.968;5.366;2022-09-25T14:11:35;26.00;82.20
26623;DHT22;14254;50.968;5.366;2022-09-25T14:14:14;26.90;77.10
26623;DHT22;14254;50.968;5.366;2022-09-25T14:16:47;29.80;70.40
26623;DHT22;14254;50.968;5.366;2022-09-25T14:19:18;30.70;64.30
26623;DHT22;14254;50.968;5.366;2022-09-25T14:21:46;31.50;64.00
26623;DHT22;14254;50.968;5.366;2022-09-25T14:24:27;32.90;60.20
26623;DHT22;14254;50.968;5.366;2022-09-25T14:26:57;30.00;62.10
26623;DHT22;14254;50.968;5.366;2022-09-25T14:29:30;30.10;62.20
26623;DHT22;14254;50.968;5.366;2022-09-25T14:35:00;31.10;59.80
26623;DHT22;14254;50.968;5.366;2022-09-25T14:38:02;29.40;60.50
26623;DHT22;14254;50.968;5.366;2022-09-25T14:40:36;30.40;59.60
26623;DHT22;14254;50.968;5.366;2022-09-25T14:43:31;28.90;61.30
26623;DHT22;14254;50.968;5.366;2022-09-25T14:46:33;27.70;63.10
26623;DHT22;14254;50.968;5.366;2022-09-25T14:49:03;28.80;63.70
26623;DHT22;14254;50.968;5.366;2022-09-25T14:51:40;32.10;59.70
26623;DHT22;14254;50.968;5.366;2022-09-25T14:54:12;33.60;56.10
26623;DHT22;14254;50.968;5.366;2022-09-25T14:56:41;33.10;54.50
26623;DHT22;14254;50.968;5.366;2022-09-25T14:59:12;31.50;58.30
26623;DHT22;14254;50.968;5.366;2022-09-25T15:01:46;32.70;57.10
26623;DHT22;14254;50.968;5.366;2022-09-25T15:04:30;31.30;58.70
26623;DHT22;14254;50.968;5.366;2022-09-25T15:07:13;29.80;61.90
26623;DHT22;14254;50.968;5.366;2022-09-25T15:09:42;28.10;65.10
26623;DHT22;14254;50.968;5.366;2022-09-25T15:12:26;27.30;67.60
26623;DHT22;14254;50.968;5.366;2022-09-25T15:15:13;28.20;67.20
26623;DHT22;14254;50.968;5.366;2022-09-25T15:17:51;30.10;63.40
26623;DHT22;14254;50.968;5.366;2022-09-25T15:20:25;29.40;62.20
26623;DHT22;14254;50.968;5.366;2022-09-25T15:22:58;27.70;66.10
26623;DHT22;14254;50.968;5.366;2022-09-25T15:25:29;25.00;73.40
26623;DHT22;14254;50.968;5.366;2022-09-25T15:27:56;22.50;81.20
26623;DHT22;14254;50.968;5.366;2022-09-25T15:30:25;21.10;88.40
26623;DHT22;14254;50.968;5.366;2022-09-25T15:32:53;20.60;91.20
26623;DHT22;14254;50.968;5.366;2022-09-25T15:35:23;21.00;91.20
26623;DHT22;14254;50.968;5.366;2022-09-25T15:38:10;22.10;90.20
26623;DHT22;14254;50.968;5.366;2022-09-25T15:40:36;25.30;80.70
26623;DHT22;14254;50.968;5.366;2022-09-25T15:43:02;28.50;71.60
26623;DHT22;14254;50.968;5.366;2022-09-25T15:50:36;30.10;64.10
26623;DHT22;14254;50.968;5.366;2022-09-25T15:53:37;32.00;60.80
26623;DHT22;14254;50.968;5.366;2022-09-25T15:56:35;32.90;59.90
26623;DHT22;14254;50.968;5.366;2022-09-25T15:59:22;33.80;57.70
26623;DHT22;14254;50.968;5.366;2022-09-25T16:01:49;33.80;57.50
26623;DHT22;14254;50.968;5.366;2022-09-25T16:04:33;33.30;57.00
26623;DHT22;14254;50.968;5.366;2022-09-25T16:09:56;29.60;62.30
26623;DHT22;14254;50.968;5.366;2022-09-25T16:12:28;30.60;61.80
26623;DHT22;14254;50.968;5.366;2022-09-25T16:14:56;30.60;60.80
26623;DHT22;14254;50.968;5.366;2022-09-25T16:17:31;29.10;63.20
26623;DHT22;14254;50.968;5.366;2022-09-25T16:20:08;25.80;69.60
26623;DHT22;14254;50.968;5.366;2022-09-25T16:22:53;24.10;76.30
26623;DHT22;14254;50.968;5.366;2022-09-25T16:25:29;23.50;77.20
26623;DHT22;14254;50.968;5.366;2022-09-25T16:28:05;23.00;79.30
26623;DHT22;14254;50.968;5.366;2022-09-25T16:30:33;22.10;84.30
26623;DHT22;14254;50.968;5.366;2022-09-25T16:33:23;22.00;84.40
26623;DHT22;14254;50.968;5.366;2022-09-25T16:35:50;22.10;85.70
26623;DHT22;14254;50.968;5.366;2022-09-25T16:38:31;21.90;87.20
26623;DHT22;14254;50.968;5.366;2022-09-25T16:41:20;21.80;87.50
26623;DHT22;14254;50.968;5.366;2022-09-25T16:44:17;21.70;88.80
26623;DHT22;14254;50.968;5.366;2022-09-25T16:49:27;21.20;91.10
26623;DHT22;14254;50.968;5.366;2022-09-25T16:51:54;21.10;92.00
26623;DHT22;14254;50.968;5.366;2022-09-25T16:54:20;20.90;92.40
26623;DHT22;14254;50.968;5.366;2022-09-25T16:56:47;20.80;93.30
26623;DHT22;14254;50.968;5.366;2022-09-25T16:59:22;20.70;93.40
26623;DHT22;14254;50.968;5.366;2022-09-25T17:01:51;20.30;94.80
26623;DHT22;14254;50.968;5.366;2022-09-25T17:04:25;20.10;96.40
26623;DHT22;14254;50.968;5.366;2022-09-25T17:06:52;19.90;97.50
26623;DHT22;14254;50.968;5.366;2022-09-25T17:09:19;19.80;98.30
26623;DHT22;14254;50.968;5.366;2022-09-25T17:11:46;19.70;98.70
26623;DHT22;14254;50.968;5.366;2022-09-25T17:14:21;19.50;99.10
26623;DHT22;14254;50.968;5.366;2022-09-25T17:16:51;19.40;99.90
26623;DHT22;14254;50.968;5.366;2022-09-25T17:19:17;19.40;99.90
26623;DHT22;14254;50.968;5.366;2022-09-25T17:21:47;19.30;99.90
26623;DHT22;14254;50.968;5.366;2022-09-25T17:24:16;19.10;99.90
26623;DHT22;14254;50.968;5.366;2022-09-25T17:26:43;19.00;99.90
26623;DHT22;14254;50.968;5.366;2022-09-25T17:29:09;18.90;99.90
26623;DHT22;14254;50.968;5.366;2022-09-25T17:31:35;18.90;99.90
26623;DHT22;14254;50.968;5.366;2022-09-25T17:34:05;18.80;99.90
26623;DHT22;14254;50.968;5.366;2022-09-25T17:36:32;18.70;99.90
26623;DHT22;14254;50.968;5.366;2022-09-25T17:38:58;18.60;99.90
26623;DHT22;14254;50.968;5.366;2022-09-25T17:41:32;18.40;99.90
26623;DHT22;14254;50.968;5.366;2022-09-25T17:43:58;18.20;99.90
26623;DHT22;14254;50.968;5.366;2022-09-25T17:46:24;18.10;99.90
26623;DHT22;14254;50.968;5.366;2022-09-25T17:48:51;17.90;99.90
26623;DHT22;14254;50.968;5.366;2022-09-25T17:51:23;17.80;99.90
26623;DHT22;14254;50.968;5.366;2022-09-25T17:53:49;17.60;99.90
26623;DHT22;14254;50.968;5.366;2022-09-25T17:56:19;17.50;99.90
26623;DHT22;14254;50.968;5.366;2022-09-25T17:58:45;17.50;99.90
26623;DHT22;14254;50.968;5.366;2022-09-25T18:01:16;17.40;99.90
26623;DHT22;14254;50.968;5.366;2022-09-25T18:03:50;17.20;99.90
26623;DHT22;14254;50.968;5.366;2022-09-25T18:06:16;17.00;99.90
26623;DHT22;14254;50.968;5.366;2022-09-25T18:08:43;16.70;99.90